createdAt,value
2022-10-17T00:01:20.241Z,15.63
2022-10-17T00:03:49.850Z,17.95
2022-10-17T00:06:19.982Z,18.88
2022-10-17T00:08:48.305Z,16.92
2022-10-17T00:11:19.203Z,18.55
2022-10-17T00:13:49.702Z,17.90
2022-10-17T00:16:25.305Z,13.95
2022-10-17T00:18:55.687Z,18.27
2022-10-17T00:21:26.853Z,16.55
2022-10-17T00:23:55.968Z,15.55
2022-10-17T00:26:24.918Z,17.20
2022-10-17T00:28:54.466Z,18.92
2022-10-17T00:31:24.636Z,14.07
2022-10-17T00:33:53.934Z,17.75
2022-10-17T00:36:26.568Z,15.93
2022-10-17T00:41:26.756Z,17.90
2022-10-17T00:43:58.400Z,19.70
2022-10-17T00:46:29.337Z,19.98
2022-10-17T00:49:00.375Z,20.65
2022-10-17T00:51:35.458Z,14.20
2022-10-17T00:54:05.027Z,16.73
2022-10-17T00:56:34.130Z,17.35
2022-10-17T00:59:03.443Z,18.30
2022-10-17T01:01:33.440Z,15.57
2022-10-17T01:04:02.379Z,14.63
2022-10-17T01:06:52.752Z,17.27
2022-10-17T01:09:21.918Z,22.58
2022-10-17T01:11:58.219Z,18.65
2022-10-17T01:14:34.187Z,19.92
2022-10-17T01:17:10.279Z,17.85
2022-10-17T01:20:07.312Z,21.33
2022-10-17T01:22:47.239Z,15.13
2022-10-17T01:25:38.511Z,17.98
2022-10-17T01:28:30.310Z,14.88
2022-10-17T01:31:08.862Z,14.43
2022-10-17T01:33:55.372Z,20.85
2022-10-17T01:36:37.454Z,16.75
2022-10-17T01:41:45.001Z,17.77
2022-10-17T01:44:19.690Z,18.13
2022-10-17T01:46:52.020Z,17.23
2022-10-17T01:49:26.009Z,16.65
2022-10-17T01:52:00.506Z,18.02
2022-10-17T01:54:34.299Z,18.40
2022-10-17T01:57:09.275Z,19.38
2022-10-17T01:59:42.624Z,16.70
2022-10-17T02:02:16.456Z,17.73
2022-10-17T02:04:45.434Z,16.75
2022-10-17T02:07:15.172Z,16.05
2022-10-17T02:09:44.061Z,20.58
2022-10-17T02:12:35.260Z,15.77
2022-10-17T02:15:17.999Z,17.70
2022-10-17T02:17:56.465Z,20.77
2022-10-17T02:20:30.699Z,16.90
2022-10-17T02:23:06.927Z,17.80
2022-10-17T02:25:41.691Z,17.88
2022-10-17T02:28:21.089Z,17.02
2022-10-17T02:30:56.790Z,16.35
2022-10-17T02:33:33.074Z,19.52
2022-10-17T02:36:05.997Z,21.17
2022-10-17T02:38:36.098Z,18.48
2022-10-17T02:41:07.602Z,17.75
2022-10-17T02:43:37.987Z,16.58
2022-10-17T02:46:08.446Z,16.42
2022-10-17T02:48:43.954Z,19.83
2022-10-17T02:51:21.679Z,19.10
2022-10-17T02:53:56.891Z,19.85
2022-10-17T02:56:28.660Z,16.08
2022-10-17T02:59:00.893Z,16.60
2022-10-17T03:01:31.917Z,18.25
2022-10-17T03:04:11.922Z,16.63
2022-10-17T03:06:42.004Z,18.88
2022-10-17T03:09:10.923Z,16.88
2022-10-17T03:11:39.776Z,17.23
2022-10-17T03:14:09.914Z,17.33
2022-10-17T03:16:38.581Z,20.85
2022-10-17T03:19:09.002Z,17.75
2022-10-17T03:21:38.736Z,21.23
2022-10-17T03:24:08.991Z,20.98
2022-10-17T03:26:37.726Z,16.92
2022-10-17T03:29:07.098Z,17.38
2022-10-17T03:31:37.762Z,17.13
2022-10-17T03:34:09.793Z,21.75
2022-10-17T03:36:38.611Z,17.05
2022-10-17T03:39:08.938Z,16.98
2022-10-17T03:41:37.535Z,16.98
2022-10-17T03:44:06.429Z,18.58
2022-10-17T03:46:35.905Z,18.70
2022-10-17T03:49:05.936Z,19.33
2022-10-17T03:51:38.044Z,17.15
2022-10-17T03:54:13.857Z,18.02
2022-10-17T03:56:42.568Z,15.55
2022-10-17T03:59:15.566Z,20.20
2022-10-17T04:01:50.022Z,16.38
2022-10-17T04:04:20.075Z,20.48
2022-10-17T04:06:50.118Z,20.80
2022-10-17T04:09:18.742Z,20.00
2022-10-17T04:12:10.757Z,18.40
2022-10-17T04:14:40.301Z,19.52
2022-10-17T04:17:09.730Z,23.58
2022-10-17T04:19:41.573Z,18.20
2022-10-17T04:22:12.225Z,20.73
2022-10-17T04:24:41.467Z,17.33
2022-10-17T04:27:22.417Z,16.42
2022-10-17T04:29:51.408Z,18.58
2022-10-17T04:32:26.244Z,17.70
2022-10-17T04:35:18.238Z,18.52
2022-10-17T04:37:53.837Z,16.65
2022-10-17T04:40:23.099Z,17.70
2022-10-17T04:42:54.602Z,16.92
2022-10-17T04:45:28.809Z,18.25
2022-10-17T04:48:03.796Z,16.42
2022-10-17T04:50:32.356Z,18.40
2022-10-17T04:53:30.314Z,18.88
2022-10-17T04:55:59.189Z,24.15
2022-10-17T04:58:29.689Z,19.67
2022-10-17T05:00:58.760Z,19.90
2022-10-17T05:03:30.850Z,17.77
2022-10-17T05:06:05.815Z,19.40
2022-10-17T05:08:36.220Z,19.20
2022-10-17T05:11:07.065Z,23.10
2022-10-17T05:13:37.475Z,20.83
2022-10-17T05:16:07.658Z,32.65
2022-10-17T05:18:37.292Z,32.80
2022-10-17T05:21:07.186Z,49.30
2022-10-17T05:23:39.490Z,47.83
2022-10-17T05:26:09.357Z,47.83
2022-10-17T05:28:38.431Z,39.67
2022-10-17T05:31:09.726Z,39.90
2022-10-17T05:33:40.281Z,37.58
2022-10-17T05:36:09.564Z,27.70
2022-10-17T05:38:40.209Z,29.90
2022-10-17T05:41:09.118Z,31.45
2022-10-17T05:43:37.945Z,30.58
2022-10-17T05:46:08.280Z,37.97
2022-10-17T05:48:38.652Z,41.42
2022-10-17T05:51:10.187Z,42.15
2022-10-17T05:53:42.484Z,36.20
2022-10-17T05:56:17.581Z,41.42
2022-10-17T05:58:53.203Z,42.42
2022-10-17T06:01:42.750Z,36.50
2022-10-17T06:04:11.600Z,33.08
2022-10-17T06:06:41.592Z,26.63
2022-10-17T06:09:12.611Z,26.88
2022-10-17T06:11:45.327Z,34.40
2022-10-17T06:14:14.424Z,32.80
2022-10-17T06:16:43.937Z,36.78
2022-10-17T06:19:12.852Z,47.30
2022-10-17T06:21:42.218Z,39.88
2022-10-17T06:24:16.223Z,43.05
2022-10-17T06:26:47.574Z,41.65
2022-10-17T06:29:17.766Z,35.30
2022-10-17T06:31:53.002Z,36.75
2022-10-17T06:34:22.410Z,32.35
2022-10-17T06:36:51.274Z,38.58
2022-10-17T06:39:23.334Z,39.95
2022-10-17T06:42:05.493Z,36.47
2022-10-17T06:44:54.525Z,45.80
2022-10-17T06:47:52.659Z,46.03
2022-10-17T06:50:43.756Z,36.80
2022-10-17T06:53:17.071Z,35.35
2022-10-17T06:56:01.522Z,34.25
2022-10-17T06:58:51.510Z,36.25
2022-10-17T07:01:37.353Z,26.67
2022-10-17T07:04:07.401Z,21.38
2022-10-17T07:06:36.751Z,23.10
2022-10-17T07:09:17.320Z,23.00
2022-10-17T07:11:47.622Z,23.98
2022-10-17T07:14:22.913Z,21.77
2022-10-17T07:16:57.751Z,23.85
2022-10-17T07:19:28.399Z,21.55
2022-10-17T07:21:57.391Z,18.98
2022-10-17T07:24:27.180Z,19.65
2022-10-17T07:27:03.855Z,18.90
2022-10-17T07:29:36.394Z,20.75
2022-10-17T07:32:11.815Z,20.10
2022-10-17T07:34:41.117Z,22.70
2022-10-17T07:37:12.167Z,21.15
2022-10-17T07:39:44.236Z,26.70
2022-10-17T07:42:14.954Z,18.88
2022-10-17T07:44:47.621Z,22.92
2022-10-17T07:47:17.188Z,25.13
2022-10-17T07:49:47.059Z,28.30
2022-10-17T07:52:17.213Z,23.63
2022-10-17T07:54:46.144Z,27.17
2022-10-17T07:57:16.763Z,19.92
2022-10-17T07:59:48.589Z,20.80
2022-10-17T08:04:52.331Z,21.00
2022-10-17T08:07:29.259Z,25.38
2022-10-17T08:09:58.657Z,19.13
2022-10-17T08:12:32.653Z,18.35
2022-10-17T08:15:02.100Z,19.20
2022-10-17T08:17:31.074Z,21.02
2022-10-17T08:19:59.777Z,19.27
2022-10-17T08:22:31.468Z,24.98
2022-10-17T08:25:00.614Z,21.70
2022-10-17T08:27:31.736Z,18.30
2022-10-17T08:30:00.453Z,18.83
2022-10-17T08:32:30.536Z,17.52
2022-10-17T08:34:59.498Z,21.90
2022-10-17T08:37:31.852Z,15.97
2022-10-17T08:40:01.607Z,16.08
2022-10-17T08:42:52.157Z,18.23
2022-10-17T08:45:29.070Z,21.23
2022-10-17T08:48:03.660Z,17.70
2022-10-17T08:50:38.715Z,16.63
2022-10-17T08:53:17.464Z,18.48
2022-10-17T08:55:48.486Z,16.40
2022-10-17T08:58:23.401Z,16.52
2022-10-17T09:01:02.459Z,14.57
2022-10-17T09:04:04.181Z,15.88
2022-10-17T09:06:39.123Z,16.02
2022-10-17T09:09:22.264Z,15.32
2022-10-17T09:12:01.405Z,15.73
2022-10-17T09:14:55.984Z,16.00
2022-10-17T09:17:36.942Z,18.80
2022-10-17T09:20:11.429Z,12.15
2022-10-17T09:22:45.575Z,16.85
2022-10-17T09:25:19.201Z,14.40
2022-10-17T09:27:51.267Z,12.07
2022-10-17T09:30:45.479Z,18.17
2022-10-17T09:33:28.510Z,13.52
2022-10-17T09:36:05.660Z,14.13
2022-10-17T09:38:41.725Z,14.20
2022-10-17T09:41:42.776Z,15.40
2022-10-17T09:44:21.901Z,15.20
2022-10-17T09:47:16.365Z,14.60
2022-10-17T09:49:48.598Z,13.10
2022-10-17T09:52:20.198Z,14.05
2022-10-17T09:54:51.394Z,19.23
2022-10-17T09:57:22.038Z,13.65
2022-10-17T10:00:09.583Z,12.32
2022-10-17T10:02:45.573Z,13.93
2022-10-17T10:05:18.488Z,13.15
2022-10-17T10:08:04.989Z,13.25
2022-10-17T10:10:34.500Z,15.57
2022-10-17T10:13:08.584Z,13.25
2022-10-17T10:15:41.744Z,18.23
2022-10-17T10:18:58.470Z,14.02
2022-10-17T10:22:01.028Z,13.15
2022-10-17T10:24:31.179Z,17.13
2022-10-17T10:27:05.613Z,13.63
2022-10-17T10:29:38.414Z,16.05
2022-10-17T10:32:14.045Z,14.70
2022-10-17T10:34:50.971Z,16.58
2022-10-17T10:37:22.974Z,16.60
2022-10-17T10:39:54.407Z,15.23
2022-10-17T10:45:00.156Z,17.77
2022-10-17T10:47:32.178Z,13.13
2022-10-17T10:50:29.513Z,14.60
2022-10-17T10:53:30.763Z,13.82
2022-10-17T10:56:14.789Z,17.77
2022-10-17T10:58:57.200Z,15.27
2022-10-17T11:01:32.993Z,14.10
2022-10-17T11:04:16.269Z,14.25
2022-10-17T11:06:47.498Z,13.93
2022-10-17T11:09:32.912Z,12.73
2022-10-17T11:12:11.217Z,13.50
2022-10-17T11:14:46.489Z,13.20
2022-10-17T11:17:24.979Z,11.32
2022-10-17T11:20:02.357Z,13.95
2022-10-17T11:22:36.017Z,12.13
2022-10-17T11:25:14.431Z,12.48
2022-10-17T11:27:43.107Z,11.50
2022-10-17T11:30:15.474Z,11.20
2022-10-17T11:32:47.534Z,12.40
2022-10-17T11:35:22.218Z,11.60
2022-10-17T11:37:58.037Z,10.65
2022-10-17T11:40:32.290Z,9.93
2022-10-17T11:43:03.051Z,10.63
2022-10-17T11:45:38.276Z,11.05
2022-10-17T11:48:13.450Z,17.02
2022-10-17T11:53:48.250Z,9.57
2022-10-17T11:56:22.916Z,9.73
2022-10-17T11:58:59.102Z,10.68
2022-10-17T12:01:36.278Z,10.43
2022-10-17T12:04:27.876Z,11.25
2022-10-17T12:07:11.259Z,12.20
2022-10-17T12:09:47.975Z,14.88
2022-10-17T12:12:27.372Z,11.52
2022-10-17T12:15:29.205Z,8.52
2022-10-17T12:18:01.168Z,12.88
2022-10-17T12:20:35.829Z,13.65
2022-10-17T12:23:27.257Z,12.40
2022-10-17T12:26:04.488Z,12.10
2022-10-17T12:28:35.579Z,11.43
2022-10-17T12:31:07.319Z,10.35
2022-10-17T12:33:49.640Z,12.85
2022-10-17T12:36:39.814Z,13.68
2022-10-17T12:39:43.415Z,10.60
2022-10-17T12:42:41.529Z,12.73
2022-10-17T12:45:44.147Z,9.50
2022-10-17T12:48:14.167Z,10.68
2022-10-17T12:51:34.751Z,11.45
2022-10-17T12:54:00.140Z,9.23
2022-10-17T12:56:40.045Z,14.65
2022-10-17T12:59:14.739Z,9.38
2022-10-17T13:01:47.704Z,9.77
2022-10-17T13:04:19.303Z,9.35
2022-10-17T13:06:50.992Z,11.18
2022-10-17T13:11:51.656Z,7.47
2022-10-17T13:14:24.236Z,9.88
2022-10-17T13:16:55.188Z,10.45
2022-10-17T13:19:27.984Z,9.27
2022-10-17T13:22:01.082Z,9.45
2022-10-17T13:24:35.980Z,10.95
2022-10-17T13:27:06.591Z,10.15
2022-10-17T13:29:45.825Z,12.90
2022-10-17T13:32:17.959Z,15.70
2022-10-17T13:34:50.711Z,8.88
2022-10-17T13:37:20.417Z,11.25
2022-10-17T13:39:55.542Z,14.00
2022-10-17T13:42:32.874Z,10.82
2022-10-17T13:45:04.297Z,11.10
2022-10-17T13:47:40.871Z,10.10
2022-10-17T13:50:42.909Z,8.55
2022-10-17T13:53:19.783Z,7.32
2022-10-17T13:56:09.749Z,9.63
2022-10-17T13:58:48.764Z,9.50
2022-10-17T14:01:18.594Z,10.98
2022-10-17T14:03:54.075Z,13.32
2022-10-17T14:06:32.711Z,10.82
2022-10-17T14:09:04.070Z,9.35
2022-10-17T14:11:40.985Z,10.20
2022-10-17T14:14:19.298Z,7.63
2022-10-17T14:16:48.217Z,7.28
2022-10-17T14:19:27.868Z,9.23
2022-10-17T14:22:20.158Z,9.32
2022-10-17T14:24:49.717Z,9.40
2022-10-17T14:27:38.533Z,9.98
2022-10-17T14:30:55.119Z,11.52
2022-10-17T14:33:24.934Z,10.52
2022-10-17T14:35:55.575Z,10.32
2022-10-17T14:38:29.983Z,8.85
2022-10-17T14:41:23.594Z,10.55
2022-10-17T14:46:24.211Z,13.00
2022-10-17T14:49:07.663Z,8.80
2022-10-17T14:51:50.296Z,10.10
2022-10-17T14:54:29.989Z,12.07
2022-10-17T14:56:58.626Z,10.25
2022-10-17T14:59:52.934Z,9.13
2022-10-17T15:02:17.278Z,10.48
2022-10-17T15:04:46.165Z,10.07
2022-10-17T15:07:17.379Z,12.55
2022-10-17T15:09:50.838Z,10.75
2022-10-17T15:12:22.931Z,17.27
2022-10-17T15:14:52.567Z,17.88
2022-10-17T15:17:25.803Z,19.75
2022-10-17T15:19:54.960Z,17.38
2022-10-17T15:22:24.011Z,16.60
2022-10-17T15:24:54.720Z,16.48
2022-10-17T15:27:26.622Z,19.40
2022-10-17T15:29:59.399Z,18.90
2022-10-17T15:32:30.804Z,19.17
2022-10-17T15:34:59.809Z,14.27
2022-10-17T15:37:38.084Z,22.95
2022-10-17T15:40:14.556Z,20.50
2022-10-17T15:42:46.114Z,14.20
2022-10-17T15:45:17.565Z,14.05
2022-10-17T15:47:52.969Z,15.48
2022-10-17T15:50:24.936Z,13.95
2022-10-17T15:52:53.954Z,15.07
2022-10-17T15:55:24.269Z,13.95
2022-10-17T15:57:54.278Z,11.90
2022-10-17T16:00:25.534Z,13.95
2022-10-17T16:02:54.471Z,10.55
2022-10-17T16:05:25.891Z,12.70
2022-10-17T16:07:55.374Z,13.35
2022-10-17T16:10:26.880Z,15.18
2022-10-17T16:12:57.709Z,12.40
2022-10-17T16:15:30.875Z,14.07
2022-10-17T16:18:01.762Z,11.20
2022-10-17T16:20:33.572Z,10.75
2022-10-17T16:23:05.473Z,13.25
2022-10-17T16:25:36.353Z,12.90
2022-10-17T16:28:06.476Z,15.15
2022-10-17T16:30:39.450Z,15.77
2022-10-17T16:33:08.297Z,13.88
2022-10-17T16:35:38.962Z,13.30
2022-10-17T16:38:08.876Z,12.73
2022-10-17T16:40:40.432Z,13.23
2022-10-17T16:43:12.402Z,12.98
2022-10-17T16:45:42.221Z,16.30
2022-10-17T16:48:12.608Z,12.05
2022-10-17T16:50:41.911Z,13.68
2022-10-17T16:53:10.727Z,15.65
2022-10-17T16:55:41.061Z,16.05
2022-10-17T16:58:09.761Z,15.57
2022-10-17T17:00:41.676Z,14.63
2022-10-17T17:03:10.570Z,20.67
2022-10-17T17:05:39.363Z,19.67
2022-10-17T17:08:10.436Z,17.20
2022-10-17T17:10:47.456Z,16.45
2022-10-17T17:13:16.693Z,20.60
2022-10-17T17:15:46.468Z,15.05
2022-10-17T17:18:15.705Z,17.50
2022-10-17T17:20:44.594Z,16.88
2022-10-17T17:23:15.924Z,17.85
2022-10-17T17:25:45.505Z,19.90
2022-10-17T17:28:15.471Z,20.42
2022-10-17T17:30:47.504Z,15.02
2022-10-17T17:33:16.858Z,17.75
2022-10-17T17:35:45.718Z,18.88
2022-10-17T17:38:14.563Z,21.98
2022-10-17T17:40:50.657Z,20.02
2022-10-17T17:43:28.344Z,14.05
2022-10-17T17:45:57.210Z,18.15
2022-10-17T17:48:28.765Z,19.95
2022-10-17T17:51:04.164Z,20.63
2022-10-17T17:53:33.296Z,19.08
2022-10-17T17:56:03.458Z,19.77
2022-10-17T17:58:34.137Z,17.70
2022-10-17T18:01:11.386Z,22.13
2022-10-17T18:03:42.496Z,19.27
2022-10-17T18:06:11.417Z,16.75
2022-10-17T18:08:42.811Z,18.02
2022-10-17T18:13:54.229Z,18.02
2022-10-17T18:16:23.314Z,17.27
2022-10-17T18:18:52.918Z,19.63
2022-10-17T18:21:24.263Z,17.25
2022-10-17T18:23:53.601Z,21.27
2022-10-17T18:26:22.496Z,16.05
2022-10-17T18:28:53.470Z,19.55
2022-10-17T18:31:28.650Z,18.35
2022-10-17T18:34:01.061Z,18.67
2022-10-17T18:36:31.084Z,19.25
2022-10-17T18:39:02.835Z,21.42
2022-10-17T18:44:04.294Z,18.75
2022-10-17T18:46:36.434Z,19.48
2022-10-17T18:49:05.479Z,25.45
2022-10-17T18:51:35.156Z,19.27
2022-10-17T18:54:06.403Z,22.90
2022-10-17T18:56:35.473Z,21.55
2022-10-17T18:59:05.746Z,20.85
2022-10-17T19:01:35.945Z,20.88
2022-10-17T19:04:04.657Z,21.80
2022-10-17T19:06:43.891Z,20.05
2022-10-17T19:09:16.532Z,26.08
2022-10-17T19:11:45.408Z,20.13
2022-10-17T19:14:17.273Z,21.30
2022-10-17T19:16:48.041Z,23.17
2022-10-17T19:19:21.760Z,19.20
2022-10-17T19:21:51.204Z,21.65
2022-10-17T19:24:22.925Z,20.05
2022-10-17T19:29:27.670Z,22.35
2022-10-17T19:34:30.893Z,27.25
2022-10-17T19:36:59.572Z,21.45
2022-10-17T19:39:28.834Z,23.25
2022-10-17T19:42:05.872Z,22.40
2022-10-17T19:44:38.274Z,19.70
2022-10-17T19:47:07.367Z,20.55
2022-10-17T19:49:36.256Z,22.48
2022-10-17T19:52:05.954Z,22.40
2022-10-17T19:54:34.686Z,21.67
2022-10-17T19:57:10.566Z,20.02
2022-10-17T19:59:41.472Z,20.05
2022-10-17T20:02:13.087Z,19.55
2022-10-17T20:04:54.515Z,18.92
2022-10-17T20:07:37.760Z,23.15
2022-10-17T20:10:11.116Z,18.35
2022-10-17T20:12:40.310Z,16.88
2022-10-17T20:15:12.634Z,18.52
2022-10-17T20:17:44.360Z,14.48
2022-10-17T20:20:13.352Z,18.67
2022-10-17T20:22:45.238Z,18.75
2022-10-17T20:27:43.411Z,15.50
2022-10-17T20:30:14.614Z,18.48
2022-10-17T20:32:43.593Z,17.05
2022-10-17T20:35:12.495Z,17.55
2022-10-17T20:37:44.241Z,16.23
2022-10-17T20:43:02.279Z,16.30
2022-10-17T20:45:45.069Z,17.38
2022-10-17T20:48:21.111Z,15.73
2022-10-17T20:50:50.323Z,20.55
2022-10-17T20:53:37.294Z,16.20
2022-10-17T20:56:08.544Z,16.25
2022-10-17T20:58:37.498Z,15.32
2022-10-17T21:01:09.281Z,17.48
2022-10-17T21:06:12.763Z,13.85
2022-10-17T21:08:41.425Z,16.85
2022-10-17T21:11:14.888Z,18.30
2022-10-17T21:13:43.770Z,20.23
2022-10-17T21:16:15.678Z,18.15
2022-10-17T21:18:45.824Z,16.73
2022-10-17T21:21:15.656Z,14.30
2022-10-17T21:23:46.575Z,17.23
2022-10-17T21:26:16.254Z,18.55
2022-10-17T21:28:46.545Z,15.45
2022-10-17T21:31:19.195Z,16.27
2022-10-17T21:33:50.246Z,16.45
2022-10-17T21:36:20.290Z,20.77
2022-10-17T21:38:50.954Z,16.52
2022-10-17T21:41:21.556Z,16.50
2022-10-17T21:43:53.876Z,18.30
2022-10-17T21:46:24.208Z,15.77
2022-10-17T21:48:53.438Z,16.00
2022-10-17T21:51:24.520Z,16.60
2022-10-17T21:53:55.669Z,16.70
2022-10-17T21:56:28.205Z,16.27
2022-10-17T21:58:58.798Z,19.70
2022-10-17T22:01:31.150Z,16.52
2022-10-17T22:04:02.349Z,16.33
2022-10-17T22:06:40.265Z,15.20
2022-10-17T22:09:13.410Z,16.27
2022-10-17T22:11:43.298Z,18.17
2022-10-17T22:14:16.928Z,18.42
2022-10-17T22:16:48.593Z,16.10
2022-10-17T22:19:19.664Z,15.23
2022-10-17T22:21:48.506Z,13.88
2022-10-17T22:24:19.113Z,19.13
2022-10-17T22:26:48.691Z,23.98
2022-10-17T22:29:17.546Z,17.15
2022-10-17T22:31:47.680Z,16.48
2022-10-17T22:34:18.978Z,16.60
2022-10-17T22:36:49.445Z,17.80
2022-10-17T22:39:18.617Z,15.63
2022-10-17T22:41:47.691Z,16.73
2022-10-17T22:44:16.533Z,18.20
2022-10-17T22:46:45.146Z,18.55
2022-10-17T22:49:15.361Z,17.88
2022-10-17T22:51:43.850Z,16.13
2022-10-17T22:54:12.294Z,16.85
2022-10-17T22:56:41.032Z,17.58
2022-10-17T22:59:09.545Z,18.88
2022-10-17T23:01:38.506Z,18.42
2022-10-17T23:04:07.142Z,17.15
2022-10-17T23:06:37.230Z,21.52
2022-10-17T23:09:05.850Z,15.55
2022-10-17T23:11:34.693Z,18.15
2022-10-17T23:14:03.248Z,15.57
2022-10-17T23:16:31.964Z,16.17
2022-10-17T23:19:00.978Z,18.30
2022-10-17T23:21:29.527Z,16.63
2022-10-17T23:23:59.487Z,20.58
2022-10-17T23:26:28.232Z,18.02
2022-10-17T23:28:56.654Z,23.52
2022-10-17T23:31:25.464Z,23.63
2022-10-17T23:33:53.934Z,18.23
2022-10-17T23:36:22.722Z,14.85
2022-10-17T23:38:53.740Z,22.30
2022-10-17T23:41:26.316Z,14.85
2022-10-17T23:43:54.897Z,17.00
2022-10-17T23:46:23.862Z,16.05
2022-10-17T23:48:52.628Z,20.48
2022-10-17T23:51:22.170Z,15.27
2022-10-17T23:53:51.014Z,15.43
2022-10-17T23:56:19.570Z,18.13
2022-10-17T23:58:50.105Z,21.20
